KSJT/SJT METAR and TAF weather

Enter ICAO airport designator
Station Type Date Time Source
KSJT METAR 2020/04/04 20:51 UTC NOAA

KSJT 042051Z 03005KT 10SM OVC007 08/06 A3005 RMK AO2 SLP177 T00830056 56018


Station Type Date Time Source
KSJT Decoded METAR 2020/04/04 20:51 UTC NOAA

MATHIS FIELD, TX, United States (KSJT) 31-21N 100-30W 581M
Apr 04, 2020 - 04:51 PM EDT / 2020.04.04 2051 UTC
Wind: from the NNE (030 degrees) at 6 MPH (5 KT):0
Visibility: 10 mile(s):0
Sky conditions: overcast
Temperature: 46.9 F (8.3 C)
Dew Point: 42.1 F (5.6 C)
Relative Humidity: 83%
Pressure (altimeter): 30.05 in. Hg (1017 hPa)
Pressure tendency: 0.05 inches (1.8 hPa) lower than three hours ago
ob: KSJT 042051Z 03005KT 10SM OVC007 08/06 A3005 RMK AO2 SLP177 T00830056 56018
cycle: 21

Station Type Date Time Source
KSJT TAF 2020/04/04 20:59 UTC NOAA

TAF
AMD KSJT 041959Z 0420/0518 03008KT 6SM BR OVC005
FM050600 10003KT 2SM BR OVC004

Example: see airport list